KESWICK RESERVOIR (KES)

Elevation: 596' · SACRAMENTO R basin · Operator: US Bureau of Reclamation

Provisional data, subject to change.
Query executed Thursday at 11:47:07   clock

Select a sensor type for a plot of data.
Note: Reservoir Flows are daily averages.

Earlier

Date RES ELE    STORAGE    RES CHG    OUTFLOW    INFLOW   
 FEET   AF   AF   CFS   CFS  
02/04/2015 579.69 19350 -1939 3088 2111
02/05/2015 581.60 20452 1102 3090 3647
02/06/2015 585.56 22859 2407 3104 4319
02/07/2015 580.12 19593 -3266 4733 3087
02/08/2015 574.81 16714 -2879 4479 3028
02/09/2015 577.38 18073 1359 3634 4320
02/10/2015 577.42 18095 22 3121 3133
02/11/2015 581.87 20610 2515 3041 4311
02/12/2015 583.51 21593 983 3039 3537
02/13/2015 585.26 22670 1077 3043 3589
02/14/2015 581.44 20358 -2312 3038 1873
02/15/2015 577.98 18399 -1959 3041 2054
02/16/2015 581.02 20112 1713 3038 3904
02/17/2015 582.52 20996 884 3039 3488
02/18/2015 578.21 18526 -2470 3041 1798
02/19/2015 579.79 19406 880 3039 3484
02/20/2015 580.94 20065 659 3040 3373
02/21/2015 581.61 20457 392 3038 3240
02/22/2015 580.84 20008 -449 2996 2771
02/23/2015 580.42 19766 -242 2975 2856
02/24/2015 579.56 19277 -489 2988 2743
02/25/2015 580.35 19726 449 3036 3265
02/26/2015 580.89 20037 311 3105 3264
02/27/2015 581.08 20147 110 3064 3120
02/28/2015 581.03 20118 -29 3063 3049
03/01/2015 577.68 18236 -1882 3063 2116
03/02/2015 576.67 17691 -545 3064 2791
03/03/2015 577.98 18399 708 3093 3452
03/04/2015 578.77 18835 436 3059 3280
03/05/2015 -- -- -- -- --

Later | Latest

Warning! This data is preliminary and subject to revision.

Show KES Map | Plot KES Data | 1 Month KES Data | Real-Time KES Data | KES Info